KMIA

Miami International Airport

Code ICAO KMIA
Code IATA MIA
Nom Miami International Airport
Emplacement Miami, Florida, US
Élévation 8 pieds / 2.4 mètres
Latitude 25.79319954
Longitude -80.29060364
METAR KMIA 240553Z 31007KT 10SM FEW020 09/05 A3003 RMK AO2 SLP168 T00940050 10139 20094 58008 $
Informations extras Afficher cartes et CFS
Afficher NOTAMS
Piste Longueur Largeur Surface Élévation
08L 8600 ft 150 ft ASP 8 ft
08R 10506 ft 200 ft ASP 8 ft
09 13000 ft 150 ft ASP 7 ft
12 9354 ft 150 ft ASP 8 ft
26R 8600 ft 150 ft ASP 8 ft
26L 10506 ft 200 ft ASP 8 ft
27 13000 ft 150 ft ASP 8 ft
30 9354 ft 150 ft ASP 8 ft